Time,TemperatureF,DewpointF,PressureIn,WindDirection,WindDirectionDegrees,WindSpeedMPH,WindSpeedGustMPH,Humidity,HourlyPrecipIn,Conditions,Clouds,dailyrainin,SoftwareType,DateUTC
2013-02-15 04:01:00,34.2,24.7,29.80,SW,216,8.6,8.6,68,0.00,,---,0.00,VWS V14.01,2013-02-15 09:01:00,
2013-02-15 04:02:00,34.2,24.7,29.80,SSW,210,5.0,9.3,68,0.00,,---,0.00,VWS V14.01,2013-02-15 09:02:00,
2013-02-15 04:04:00,34.0,24.5,29.80,SSW,213,5.0,10.0,68,0.00,,---,0.00,VWS V14.01,2013-02-15 09:04:00,
2013-02-15 04:06:00,34.0,24.5,29.80,SW,226,8.6,10.0,68,0.00,,---,0.00,VWS V14.01,2013-02-15 09:06:00,
2013-02-15 04:11:00,34.0,24.5,29.80,SSW,199,8.6,8.6,68,0.00,,---,0.00,VWS V14.01,2013-02-15 09:11:00,
2013-02-15 04:17:00,34.0,24.9,29.80,SSW,208,5.7,7.9,69,0.00,,---,0.00,VWS V14.01,2013-02-15 09:17:00,
2013-02-15 04:22:00,34.0,24.9,29.80,WSW,245,8.6,8.6,69,0.00,,---,0.00,VWS V14.01,2013-02-15 09:22:00,
2013-02-15 04:28:00,34.0,24.9,29.80,SW,221,6.4,8.6,69,0.00,,---,0.00,VWS V14.01,2013-02-15 09:28:00,
2013-02-15 04:34:00,33.8,24.7,29.80,SW,233,6.4,7.2,69,0.00,,---,0.00,VWS V14.01,2013-02-15 09:34:00,
2013-02-15 04:39:00,33.8,25.1,29.80,SW,217,5.7,7.2,70,0.00,,---,0.00,VWS V14.01,2013-02-15 09:39:00,
2013-02-15 04:45:00,33.8,25.1,29.80,SW,225,4.3,8.6,70,0.00,,---,0.00,VWS V14.01,2013-02-15 09:45:00,
2013-02-15 04:50:00,33.8,25.1,29.80,SW,230,0.0,0.0,70,0.00,,---,0.00,VWS V14.01,2013-02-15 09:50:00,
2013-02-15 16:10:00,55.4,20.2,29.71,WSW,247,8.6,8.6,25,0.00,,---,0.00,VWS V14.01,2013-02-15 21:10:00,
2013-02-15 16:16:00,55.2,21.0,29.71,WSW,239,10.0,10.0,26,0.00,,---,0.00,VWS V14.01,2013-02-15 21:16:00,
2013-02-15 16:22:00,54.9,20.6,29.71,WSW,240,6.4,12.2,26,0.00,,---,0.00,VWS V14.01,2013-02-15 21:22:00,
2013-02-15 16:27:00,54.5,20.3,29.71,WSW,245,5.7,6.4,26,0.00,,---,0.00,VWS V14.01,2013-02-15 21:27:00,
2013-02-15 16:33:00,54.0,19.9,29.71,West,264,7.9,8.6,26,0.00,,---,0.00,VWS V14.01,2013-02-15 21:33:00,
2013-02-15 16:38:00,53.8,19.7,29.71,WSW,245,4.3,5.7,26,0.00,,---,0.00,VWS V14.01,2013-02-15 21:38:00,
2013-02-15 16:43:00,53.4,19.4,29.71,SW,234,0.0,4.3,26,0.00,,---,0.00,VWS V14.01,2013-02-15 21:43:00,
2013-02-15 16:49:00,53.2,19.3,29.71,WSW,252,0.0,5.7,26,0.00,,---,0.00,VWS V14.01,2013-02-15 21:49:00,
2013-02-15 16:54:00,53.1,19.1,29.71,SW,225,0.0,5.7,26,0.00,,---,0.00,VWS V14.01,2013-02-15 21:54:00,
2013-02-15 17:00:00,52.9,19.0,29.71,West,261,5.0,6.4,26,0.00,,---,0.00,VWS V14.01,2013-02-15 22:00:00,
2013-02-15 17:05:00,52.7,18.8,29.71,West,260,0.0,0.0,26,0.00,,---,0.00,VWS V14.01,2013-02-15 22:05:00,
2013-02-15 17:11:00,52.7,18.8,29.71,West,261,0.0,0.0,26,0.00,,---,0.00,VWS V14.01,2013-02-15 22:11:00,
2013-02-15 17:16:00,52.5,18.6,29.71,West,260,0.0,0.0,26,0.00,,---,0.00,VWS V14.01,2013-02-15 22:16:00,
2013-02-15 17:22:00,52.3,18.5,29.71,WNW,284,5.7,5.7,26,0.00,,---,0.00,VWS V14.01,2013-02-15 22:22:00,
2013-02-15 17:28:00,52.3,18.5,29.71,West,272,9.3,12.2,26,0.00,,---,0.00,VWS V14.01,2013-02-15 22:28:00,
2013-02-15 17:33:00,52.3,18.5,29.71,WNW,287,10.0,10.0,26,0.00,,---,0.00,VWS V14.01,2013-02-15 22:33:00,
2013-02-15 17:39:00,52.2,18.3,29.71,West,277,5.7,7.9,26,0.00,,---,0.00,VWS V14.01,2013-02-15 22:39:00,
2013-02-15 20:51:00,45.9,20.4,29.71,SE,146,0.0,0.0,36,0.00,,---,0.00,VWS V14.01,2013-02-16 01:51:00,
2013-02-15 20:57:00,45.9,21.1,29.71,West,261,0.0,0.0,37,0.00,,---,0.00,VWS V14.01,2013-02-16 01:57:00,
2013-02-15 21:03:00,45.5,20.8,29.74,West,261,0.0,0.0,37,0.00,,---,0.00,VWS V14.01,2013-02-16 02:03:00,
2013-02-15 21:08:00,45.3,20.6,29.74,West,261,0.0,0.0,37,0.00,,---,0.00,VWS V14.01,2013-02-16 02:08:00,
2013-02-15 21:13:00,45.1,21.1,29.74,West,261,0.0,0.0,38,0.00,,---,0.00,VWS V14.01,2013-02-16 02:13:00,
2013-02-15 21:19:00,45.1,21.1,29.74,West,261,0.0,0.0,38,0.00,,---,0.00,VWS V14.01,2013-02-16 02:19:00,
2013-02-15 21:24:00,45.0,20.9,29.74,West,261,0.0,0.0,38,0.00,,---,0.00,VWS V14.01,2013-02-16 02:24:00,
2013-02-15 21:30:00,45.0,20.9,29.74,West,273,0.0,0.0,38,0.00,,---,0.00,VWS V14.01,2013-02-16 02:30:00,
2013-02-15 21:35:00,45.1,21.1,29.74,WNW,283,0.0,0.0,38,0.00,,---,0.00,VWS V14.01,2013-02-16 02:35:00,
2013-02-15 21:41:00,45.1,21.1,29.74,NNW,335,0.0,0.0,38,0.00,,---,0.00,VWS V14.01,2013-02-16 02:41:00,
2013-02-15 21:47:00,45.1,21.1,29.74,West,279,5.0,5.0,38,0.00,,---,0.00,VWS V14.01,2013-02-16 02:47:00,
2013-02-15 21:52:00,45.1,21.1,29.74,West,277,0.0,5.0,38,0.00,,---,0.00,VWS V14.01,2013-02-16 02:52:00,
2013-02-15 21:58:00,45.1,21.1,29.74,West,270,6.4,6.4,38,0.00,,---,0.00,VWS V14.01,2013-02-16 02:58:00,
2013-02-15 22:03:00,45.1,21.1,29.74,West,268,0.0,0.0,38,0.00,,---,0.00,VWS V14.01,2013-02-16 03:03:00,
2013-02-15 22:08:00,45.1,21.1,29.74,NNW,340,5.7,6.4,38,0.00,,---,0.00,VWS V14.01,2013-02-16 03:08:00,
2013-02-15 22:13:00,45.1,21.1,29.74,NNW,339,0.0,0.0,38,0.00,,---,0.00,VWS V14.01,2013-02-16 03:13:00,
2013-02-15 22:19:00,45.1,21.1,29.74,NNW,338,0.0,0.0,38,0.00,,---,0.00,VWS V14.01,2013-02-16 03:19:00,
2013-02-15 22:24:00,45.1,21.1,29.74,West,265,5.0,5.0,38,0.00,,---,0.00,VWS V14.01,2013-02-16 03:24:00,